createdAt,value
2023-05-20T00:01:06.395Z,6.63
2023-05-20T00:03:33.120Z,1.98
2023-05-20T00:05:59.804Z,3.40
2023-05-20T00:08:26.515Z,5.47
2023-05-20T00:10:53.065Z,2.15
2023-05-20T00:13:19.587Z,3.13
2023-05-20T00:15:46.119Z,3.08
2023-05-20T00:18:12.660Z,4.45
2023-05-20T00:20:39.226Z,4.15
2023-05-20T00:23:05.925Z,5.15
2023-05-20T00:25:32.734Z,2.58
2023-05-20T00:27:59.497Z,5.45
2023-05-20T00:30:26.350Z,3.50
2023-05-20T00:32:52.938Z,4.25
2023-05-20T00:35:19.500Z,4.25
2023-05-20T00:37:45.988Z,3.78
2023-05-20T00:40:15.340Z,3.17
2023-05-20T00:42:43.780Z,3.08
2023-05-20T00:45:10.839Z,3.47
2023-05-20T00:47:39.115Z,3.58
2023-05-20T00:50:06.553Z,3.97
2023-05-20T00:52:33.815Z,5.55
2023-05-20T00:55:01.114Z,8.90
2023-05-20T00:57:27.730Z,3.95
2023-05-20T00:59:54.655Z,3.42
2023-05-20T01:02:21.674Z,3.70
2023-05-20T01:04:48.604Z,5.20
2023-05-20T01:07:17.321Z,3.67
2023-05-20T01:09:44.638Z,3.80
2023-05-20T01:12:11.108Z,3.38
2023-05-20T01:14:46.834Z,3.15
2023-05-20T01:17:17.720Z,2.92
2023-05-20T01:19:48.654Z,5.07
2023-05-20T01:22:15.413Z,3.60
2023-05-20T01:24:49.581Z,4.15
2023-05-20T01:27:16.171Z,3.88
2023-05-20T01:29:44.076Z,3.17
2023-05-20T01:32:15.372Z,6.03
2023-05-20T01:34:43.142Z,4.95
2023-05-20T01:37:10.915Z,3.33
2023-05-20T01:39:41.584Z,4.28
2023-05-20T01:42:12.243Z,4.05
2023-05-20T01:44:39.206Z,2.92
2023-05-20T01:47:06.081Z,5.45
2023-05-20T01:49:32.906Z,4.18
2023-05-20T01:51:59.608Z,3.42
2023-05-20T01:54:26.572Z,4.25
2023-05-20T01:56:53.444Z,7.30
2023-05-20T01:59:22.029Z,4.00
2023-05-20T02:01:48.765Z,4.10
2023-05-20T02:04:15.961Z,3.05
2023-05-20T02:06:42.526Z,3.70
2023-05-20T02:09:09.031Z,3.20
2023-05-20T02:11:36.183Z,2.42
2023-05-20T02:14:02.704Z,4.03
2023-05-20T02:16:29.496Z,3.22
2023-05-20T02:18:58.535Z,4.60
2023-05-20T02:21:25.886Z,6.03
2023-05-20T02:23:53.661Z,4.78
2023-05-20T02:26:20.721Z,3.50
2023-05-20T02:28:50.610Z,4.68
2023-05-20T02:31:17.768Z,3.08
2023-05-20T02:33:45.210Z,3.40
2023-05-20T02:36:12.391Z,5.60
2023-05-20T02:38:38.967Z,4.15
2023-05-20T02:41:05.622Z,4.88
2023-05-20T02:43:33.768Z,3.55
2023-05-20T02:46:01.460Z,4.68
2023-05-20T02:48:28.192Z,6.03
2023-05-20T02:50:54.928Z,4.35
2023-05-20T02:53:21.489Z,4.50
2023-05-20T02:55:48.974Z,5.47
2023-05-20T02:58:15.928Z,4.07
2023-05-20T03:00:43.541Z,3.83
2023-05-20T03:03:10.683Z,4.53
2023-05-20T03:05:37.682Z,6.35
2023-05-20T03:08:09.677Z,4.15
2023-05-20T03:10:37.694Z,5.53
2023-05-20T03:13:10.040Z,6.55
2023-05-20T03:15:40.973Z,3.90
2023-05-20T03:18:11.059Z,3.25
2023-05-20T03:20:38.309Z,7.00
2023-05-20T03:23:06.741Z,19.73
2023-05-20T03:25:33.830Z,4.35
2023-05-20T03:28:00.608Z,9.00
2023-05-20T03:30:27.808Z,4.32
2023-05-20T03:32:57.795Z,4.35
2023-05-20T03:35:25.603Z,5.13
2023-05-20T03:37:53.330Z,6.40
2023-05-20T03:40:22.312Z,3.90
2023-05-20T03:42:50.846Z,3.45
2023-05-20T03:45:19.155Z,3.53
2023-05-20T03:48:04.717Z,4.15
2023-05-20T03:50:33.478Z,5.00
2023-05-20T03:53:00.829Z,3.75
2023-05-20T03:55:32.547Z,5.22
2023-05-20T03:58:01.173Z,7.10
2023-05-20T04:00:30.527Z,5.65
2023-05-20T04:02:58.404Z,3.97
2023-05-20T04:05:25.305Z,6.80
2023-05-20T04:07:51.987Z,7.18
2023-05-20T04:10:20.902Z,12.02
2023-05-20T04:12:47.620Z,9.00
2023-05-20T04:15:15.038Z,4.63
2023-05-20T04:17:55.797Z,5.20
2023-05-20T04:20:22.593Z,9.10
2023-05-20T04:22:50.690Z,6.65
2023-05-20T04:25:18.710Z,7.57
2023-05-20T04:27:45.331Z,7.35
2023-05-20T04:30:12.593Z,4.80
2023-05-20T04:32:41.607Z,6.85
2023-05-20T04:35:11.879Z,4.68
2023-05-20T04:37:42.308Z,5.70
2023-05-20T04:40:09.726Z,4.93
2023-05-20T04:42:37.717Z,4.68
2023-05-20T04:45:05.812Z,7.72
2023-05-20T04:47:38.622Z,8.60
2023-05-20T04:50:13.551Z,5.20
2023-05-20T04:52:43.712Z,6.85
2023-05-20T04:55:11.833Z,6.00
2023-05-20T04:57:42.236Z,5.93
2023-05-20T05:00:13.189Z,6.10
2023-05-20T05:02:40.521Z,4.50
2023-05-20T05:05:07.895Z,5.63
2023-05-20T05:07:34.850Z,4.25
2023-05-20T05:10:01.691Z,3.80
2023-05-20T05:12:30.685Z,8.55
2023-05-20T05:14:58.791Z,6.15
2023-05-20T05:17:26.102Z,5.47
2023-05-20T05:19:52.918Z,4.90
2023-05-20T05:22:19.469Z,5.00
2023-05-20T05:24:46.275Z,5.07
2023-05-20T05:27:13.046Z,4.18
2023-05-20T05:29:39.853Z,6.55
2023-05-20T05:32:06.672Z,6.55
2023-05-20T05:34:33.258Z,4.45
2023-05-20T05:36:59.800Z,5.75
2023-05-20T05:39:26.489Z,3.90
2023-05-20T05:41:54.376Z,5.13
2023-05-20T05:44:21.544Z,4.65
2023-05-20T05:46:48.928Z,5.22
2023-05-20T05:49:16.971Z,5.70
2023-05-20T05:51:43.617Z,6.60
2023-05-20T05:54:10.219Z,6.57
2023-05-20T05:56:37.621Z,4.18
2023-05-20T05:59:05.113Z,6.68
2023-05-20T06:01:31.770Z,4.80
2023-05-20T06:03:59.412Z,6.13
2023-05-20T06:06:26.563Z,6.57
2023-05-20T06:08:53.895Z,6.63
2023-05-20T06:11:21.643Z,5.32
2023-05-20T06:13:48.245Z,9.35
2023-05-20T06:16:14.812Z,9.48
2023-05-20T06:18:41.622Z,7.90
2023-05-20T06:21:09.181Z,4.57
2023-05-20T06:23:35.865Z,4.40
2023-05-20T06:26:05.229Z,4.95
2023-05-20T06:28:32.289Z,4.32
2023-05-20T06:30:59.191Z,3.63
2023-05-20T06:33:28.549Z,5.28
2023-05-20T06:36:01.651Z,4.10
2023-05-20T06:38:28.603Z,5.07
2023-05-20T06:40:55.465Z,3.90
2023-05-20T06:43:22.169Z,7.40
2023-05-20T06:46:04.066Z,4.05
2023-05-20T06:48:35.921Z,4.65
2023-05-20T06:51:02.560Z,6.50
2023-05-20T06:53:29.521Z,3.95
2023-05-20T06:55:56.436Z,4.93
2023-05-20T06:58:23.418Z,6.40
2023-05-20T07:00:49.996Z,5.35
2023-05-20T07:03:17.010Z,5.63
2023-05-20T07:05:45.115Z,5.65
2023-05-20T07:08:12.112Z,7.47
2023-05-20T07:10:38.923Z,5.95
2023-05-20T07:13:05.950Z,5.43
2023-05-20T07:15:32.771Z,6.53
2023-05-20T07:17:59.642Z,6.63
2023-05-20T07:20:26.416Z,6.10
2023-05-20T07:22:53.614Z,5.38
2023-05-20T07:25:38.975Z,4.85
2023-05-20T07:28:05.766Z,6.20
2023-05-20T07:30:32.561Z,5.40
2023-05-20T07:33:14.516Z,6.90
2023-05-20T07:35:41.166Z,7.63
2023-05-20T07:38:07.779Z,7.20
2023-05-20T07:40:36.786Z,6.20
2023-05-20T07:43:05.819Z,8.50
2023-05-20T07:45:32.854Z,9.25
2023-05-20T07:47:59.725Z,8.30
2023-05-20T07:50:26.614Z,5.63
2023-05-20T07:52:56.484Z,6.88
2023-05-20T07:55:26.029Z,6.43
2023-05-20T07:57:52.594Z,6.03
2023-05-20T08:00:19.719Z,6.70
2023-05-20T08:02:46.431Z,6.72
2023-05-20T08:05:17.539Z,7.70
2023-05-20T08:07:45.616Z,8.90
2023-05-20T08:10:14.041Z,7.47
2023-05-20T08:12:41.734Z,5.72
2023-05-20T08:15:08.729Z,5.43
2023-05-20T08:17:35.532Z,8.65
2023-05-20T08:20:02.803Z,7.13
2023-05-20T08:22:29.430Z,5.63
2023-05-20T08:24:56.372Z,6.68
2023-05-20T08:27:22.968Z,6.30
2023-05-20T08:29:49.627Z,5.93
2023-05-20T08:32:16.313Z,8.68
2023-05-20T08:34:45.179Z,9.18
2023-05-20T08:37:11.913Z,5.72
2023-05-20T08:39:38.691Z,7.30
2023-05-20T08:42:07.974Z,7.70
2023-05-20T08:44:35.780Z,6.20
2023-05-20T08:47:05.149Z,6.88
2023-05-20T08:49:32.240Z,6.28
2023-05-20T08:52:01.042Z,5.43
2023-05-20T08:54:52.622Z,6.57
2023-05-20T08:57:21.222Z,7.18
2023-05-20T08:59:47.821Z,7.45
2023-05-20T09:02:14.918Z,8.25
2023-05-20T09:04:42.031Z,5.97
2023-05-20T09:07:08.742Z,7.25
2023-05-20T09:09:35.641Z,5.45
2023-05-20T09:12:03.572Z,7.30
2023-05-20T09:14:31.733Z,7.25
2023-05-20T09:16:58.593Z,6.70
2023-05-20T09:19:25.598Z,6.82
2023-05-20T09:21:55.351Z,9.80
2023-05-20T09:24:26.325Z,9.65
2023-05-20T09:26:53.098Z,5.45
2023-05-20T09:29:21.783Z,7.22
2023-05-20T09:31:49.648Z,7.88
2023-05-20T09:34:17.519Z,5.28
2023-05-20T09:36:45.237Z,7.38
2023-05-20T09:39:16.720Z,5.95
2023-05-20T09:42:06.963Z,5.25
2023-05-20T09:44:35.147Z,7.20
2023-05-20T09:47:02.974Z,6.75
2023-05-20T09:49:32.519Z,6.80
2023-05-20T09:52:01.406Z,5.47
2023-05-20T09:54:29.146Z,6.68
2023-05-20T09:56:59.680Z,6.70
2023-05-20T09:59:27.365Z,9.07
2023-05-20T10:01:54.192Z,6.55
2023-05-20T10:04:23.220Z,7.47
2023-05-20T10:07:01.883Z,7.80
2023-05-20T10:09:56.448Z,9.23
2023-05-20T10:12:26.024Z,9.73
2023-05-20T10:15:09.602Z,7.43
2023-05-20T10:18:01.521Z,7.72
2023-05-20T10:20:28.416Z,6.32
2023-05-20T10:22:59.628Z,6.65
2023-05-20T10:25:29.677Z,6.75
2023-05-20T10:28:09.023Z,6.95
2023-05-20T10:30:36.109Z,7.13
2023-05-20T10:33:05.665Z,6.80
2023-05-20T10:35:32.632Z,6.60
2023-05-20T10:38:11.890Z,7.05
2023-05-20T10:40:38.837Z,10.88
2023-05-20T10:43:14.730Z,5.85
2023-05-20T10:45:56.033Z,6.70
2023-05-20T10:48:33.575Z,6.38
2023-05-20T10:51:04.705Z,7.70
2023-05-20T10:53:39.785Z,6.85
2023-05-20T10:56:16.308Z,7.15
2023-05-20T10:58:43.651Z,6.85
2023-05-20T11:01:10.941Z,7.13
2023-05-20T11:03:38.802Z,7.90
2023-05-20T11:06:17.575Z,6.32
2023-05-20T11:08:46.047Z,7.95
2023-05-20T11:11:13.450Z,8.43
2023-05-20T11:13:41.240Z,7.80
2023-05-20T11:16:07.895Z,8.40
2023-05-20T11:18:34.506Z,8.60
2023-05-20T11:21:02.088Z,7.78
2023-05-20T11:23:29.581Z,13.65
2023-05-20T11:25:57.280Z,11.63
2023-05-20T11:28:24.231Z,7.85
2023-05-20T11:30:52.595Z,7.05
2023-05-20T11:33:19.616Z,5.93
2023-05-20T11:35:49.930Z,6.85
2023-05-20T11:38:16.803Z,6.13
2023-05-20T11:40:50.955Z,5.93
2023-05-20T11:43:18.487Z,9.48
2023-05-20T11:45:54.334Z,6.93
2023-05-20T11:48:21.718Z,6.40
2023-05-20T11:50:48.975Z,7.40
2023-05-20T11:53:20.286Z,7.40
2023-05-20T11:55:58.253Z,7.43
2023-05-20T11:58:27.009Z,6.93
2023-05-20T12:00:59.554Z,7.03
2023-05-20T12:03:32.898Z,6.25
2023-05-20T12:06:01.731Z,6.22
2023-05-20T12:08:28.327Z,7.75
2023-05-20T12:10:54.885Z,9.63
2023-05-20T12:13:23.210Z,12.38
2023-05-20T12:15:49.803Z,7.47
2023-05-20T12:18:16.309Z,8.05
2023-05-20T12:20:42.840Z,7.00
2023-05-20T12:23:09.360Z,7.63
2023-05-20T12:25:35.909Z,7.38
2023-05-20T12:28:02.586Z,7.63
2023-05-20T12:30:29.120Z,9.88
2023-05-20T12:32:55.873Z,8.73
2023-05-20T12:35:42.425Z,9.60
2023-05-20T12:38:09.688Z,6.95
2023-05-20T12:40:37.394Z,7.68
2023-05-20T12:43:05.469Z,7.88
2023-05-20T12:45:32.490Z,8.77
2023-05-20T12:47:59.524Z,6.90
2023-05-20T12:50:26.579Z,12.43
2023-05-20T12:52:53.377Z,8.80
2023-05-20T12:55:19.885Z,7.43
2023-05-20T12:57:48.123Z,8.32
2023-05-20T13:00:15.250Z,7.43
2023-05-20T13:02:42.635Z,7.07
2023-05-20T13:05:10.501Z,8.57
2023-05-20T13:07:37.484Z,7.60
2023-05-20T13:10:04.591Z,6.85
2023-05-20T13:12:31.162Z,7.68
2023-05-20T13:14:57.665Z,7.20
2023-05-20T13:17:24.336Z,7.50
2023-05-20T13:19:51.489Z,7.60
2023-05-20T13:22:18.085Z,12.88
2023-05-20T13:24:44.693Z,6.97
2023-05-20T13:27:11.424Z,7.13
2023-05-20T13:29:37.954Z,7.85
2023-05-20T13:32:04.786Z,12.43
2023-05-20T13:34:31.809Z,8.82
2023-05-20T13:36:58.365Z,8.32
2023-05-20T13:39:25.020Z,10.23
2023-05-20T13:41:53.480Z,9.75
2023-05-20T13:44:20.234Z,8.52
2023-05-20T13:46:46.920Z,8.07
2023-05-20T13:49:13.577Z,10.55
2023-05-20T13:51:40.330Z,6.95
2023-05-20T13:54:06.933Z,10.48
2023-05-20T13:56:34.052Z,7.10
2023-05-20T13:59:01.061Z,10.88
2023-05-20T14:01:30.255Z,7.07
2023-05-20T14:03:57.043Z,7.28
2023-05-20T14:06:23.676Z,7.07
2023-05-20T14:08:50.367Z,7.90
2023-05-20T14:11:16.888Z,7.55
2023-05-20T14:13:44.975Z,9.18
2023-05-20T14:16:11.553Z,8.88
2023-05-20T14:18:38.145Z,7.38
2023-05-20T14:21:04.962Z,10.88
2023-05-20T14:23:31.534Z,11.35
2023-05-20T14:25:58.221Z,8.32
2023-05-20T14:28:24.713Z,9.10
2023-05-20T14:30:51.397Z,9.18
2023-05-20T14:33:18.116Z,7.10
2023-05-20T14:35:44.643Z,7.35
2023-05-20T14:38:11.394Z,9.13
2023-05-20T14:40:38.125Z,8.30
2023-05-20T14:43:04.744Z,12.23
2023-05-20T14:45:31.446Z,9.95
2023-05-20T14:47:58.010Z,7.32
2023-05-20T14:50:24.520Z,8.93
2023-05-20T14:52:50.992Z,8.13
2023-05-20T14:55:17.479Z,7.13
2023-05-20T14:57:44.095Z,8.68
2023-05-20T15:00:11.528Z,9.40
2023-05-20T15:02:38.124Z,7.68
2023-05-20T15:05:05.067Z,7.95
2023-05-20T15:07:31.559Z,9.10
2023-05-20T15:09:58.042Z,8.43
2023-05-20T15:12:24.646Z,8.27
2023-05-20T15:14:51.178Z,8.20
2023-05-20T15:17:17.706Z,7.93
2023-05-20T15:19:44.268Z,7.55
2023-05-20T15:22:10.910Z,8.85
2023-05-20T15:24:37.484Z,9.45
2023-05-20T15:27:04.587Z,8.73
2023-05-20T15:29:31.138Z,11.52
2023-05-20T15:31:58.518Z,10.18
2023-05-20T15:34:25.051Z,9.40
2023-05-20T15:36:51.857Z,10.45
2023-05-20T15:39:18.357Z,8.20
2023-05-20T15:41:47.858Z,11.70
2023-05-20T15:44:14.395Z,10.55
2023-05-20T15:46:41.216Z,9.75
2023-05-20T15:49:07.824Z,10.73
2023-05-20T15:51:34.359Z,9.45
2023-05-20T15:54:00.895Z,11.73
2023-05-20T15:56:28.622Z,11.38
2023-05-20T15:58:55.865Z,8.07
2023-05-20T16:01:23.263Z,8.43
2023-05-20T16:03:50.017Z,8.40
2023-05-20T16:06:16.645Z,8.35
2023-05-20T16:08:43.165Z,10.48
2023-05-20T16:11:09.788Z,13.35
2023-05-20T16:13:36.357Z,9.35
2023-05-20T16:16:03.030Z,8.90
2023-05-20T16:18:29.799Z,9.07
2023-05-20T16:20:57.391Z,10.43
2023-05-20T16:23:24.090Z,9.35
2023-05-20T16:25:51.215Z,12.40
2023-05-20T16:28:17.826Z,9.35
2023-05-20T16:30:44.377Z,10.38
2023-05-20T16:33:11.276Z,8.68
2023-05-20T16:35:37.883Z,10.30
2023-05-20T16:38:04.468Z,11.65
2023-05-20T16:40:31.229Z,13.45
2023-05-20T16:42:57.915Z,11.70
2023-05-20T16:45:24.453Z,9.55
2023-05-20T16:47:51.628Z,10.50
2023-05-20T16:50:18.445Z,10.75
2023-05-20T16:52:45.082Z,9.73
2023-05-20T16:55:13.553Z,11.38
2023-05-20T16:57:40.072Z,10.63
2023-05-20T17:00:11.304Z,10.50
2023-05-20T17:02:37.894Z,10.40
2023-05-20T17:05:04.838Z,8.82
2023-05-20T17:07:33.445Z,10.13
2023-05-20T17:10:00.495Z,9.35
2023-05-20T17:12:27.448Z,11.75
2023-05-20T17:14:54.205Z,17.98
2023-05-20T17:17:21.265Z,9.40
2023-05-20T17:19:47.989Z,8.98
2023-05-20T17:22:14.551Z,8.93
2023-05-20T17:24:41.132Z,11.43
2023-05-20T17:27:07.808Z,9.93
2023-05-20T17:29:34.426Z,8.93
2023-05-20T17:32:00.953Z,10.00
2023-05-20T17:34:27.479Z,10.70
2023-05-20T17:36:54.006Z,8.90
2023-05-20T17:39:20.674Z,10.15
2023-05-20T17:41:47.166Z,9.13
2023-05-20T17:44:13.765Z,11.25
2023-05-20T17:46:40.609Z,10.75
2023-05-20T17:49:07.198Z,8.73
2023-05-20T17:51:34.202Z,10.43
2023-05-20T17:54:00.846Z,9.93
2023-05-20T17:56:27.445Z,11.18
2023-05-20T17:58:56.151Z,10.07
2023-05-20T18:01:23.425Z,12.35
2023-05-20T18:03:50.295Z,9.93
2023-05-20T18:06:17.969Z,10.68
2023-05-20T18:08:44.676Z,11.57
2023-05-20T18:11:11.383Z,9.95
2023-05-20T18:13:38.002Z,8.93
2023-05-20T18:16:05.035Z,9.55
2023-05-20T18:18:31.756Z,10.35
2023-05-20T18:20:58.296Z,10.00
2023-05-20T18:23:24.850Z,10.07
2023-05-20T18:25:51.767Z,12.05
2023-05-20T18:28:18.314Z,9.93
2023-05-20T18:30:44.851Z,9.98
2023-05-20T18:33:11.715Z,11.65
2023-05-20T18:35:39.136Z,9.93
2023-05-20T18:38:05.755Z,11.32
2023-05-20T18:40:32.386Z,13.52
2023-05-20T18:42:59.070Z,14.18
2023-05-20T18:45:25.883Z,10.55
2023-05-20T18:47:57.686Z,11.50
2023-05-20T18:50:24.265Z,9.60
2023-05-20T18:52:50.931Z,12.63
2023-05-20T18:55:17.707Z,10.85
2023-05-20T18:57:44.431Z,10.85
2023-05-20T19:00:12.455Z,9.63
2023-05-20T19:02:40.668Z,11.02
2023-05-20T19:05:12.436Z,10.25
2023-05-20T19:07:39.511Z,9.77
2023-05-20T19:10:06.743Z,11.93
2023-05-20T19:12:33.478Z,10.43
2023-05-20T19:15:01.366Z,12.93
2023-05-20T19:17:28.059Z,14.25
2023-05-20T19:19:54.642Z,10.20
2023-05-20T19:22:21.129Z,14.10
2023-05-20T19:24:47.731Z,15.52
2023-05-20T19:27:14.433Z,11.75
2023-05-20T19:29:41.049Z,14.05
2023-05-20T19:32:07.903Z,10.52
2023-05-20T19:34:34.728Z,10.98
2023-05-20T19:37:01.389Z,11.70
2023-05-20T19:39:28.811Z,10.50
2023-05-20T19:41:55.705Z,14.93
2023-05-20T19:44:23.095Z,15.05
2023-05-20T19:46:49.733Z,14.60
2023-05-20T19:49:16.321Z,11.20
2023-05-20T19:51:42.855Z,14.07
2023-05-20T19:54:10.086Z,11.45
2023-05-20T19:56:36.638Z,10.15
2023-05-20T19:59:03.849Z,11.70
2023-05-20T20:01:31.673Z,13.23
2023-05-20T20:03:58.248Z,11.00
2023-05-20T20:06:25.104Z,13.52
2023-05-20T20:08:54.690Z,12.00
2023-05-20T20:11:21.329Z,12.52
2023-05-20T20:13:47.959Z,12.05
2023-05-20T20:16:15.501Z,11.70
2023-05-20T20:18:42.199Z,12.35
2023-05-20T20:21:10.941Z,12.25
2023-05-20T20:23:37.938Z,11.15
2023-05-20T20:26:05.749Z,11.55
2023-05-20T20:28:32.254Z,10.70
2023-05-20T20:30:58.771Z,13.10
2023-05-20T20:33:26.020Z,11.68
2023-05-20T20:35:55.031Z,11.07
2023-05-20T20:38:21.605Z,11.68
2023-05-20T20:40:49.708Z,12.00
2023-05-20T20:43:20.986Z,10.27
2023-05-20T20:45:50.493Z,13.82
2023-05-20T20:48:17.461Z,11.48
2023-05-20T20:50:45.845Z,12.75
2023-05-20T20:53:13.394Z,15.13
2023-05-20T20:55:41.285Z,11.23
2023-05-20T20:58:08.197Z,11.77
2023-05-20T21:00:36.492Z,11.82
2023-05-20T21:03:08.015Z,10.73
2023-05-20T21:05:38.842Z,12.68
2023-05-20T21:08:08.208Z,14.68
2023-05-20T21:10:36.961Z,12.85
2023-05-20T21:13:03.856Z,12.30
2023-05-20T21:15:30.460Z,12.80
2023-05-20T21:17:57.017Z,13.25
2023-05-20T21:20:23.635Z,12.02
2023-05-20T21:22:50.102Z,11.93
2023-05-20T21:25:16.710Z,11.20
2023-05-20T21:27:43.210Z,12.82
2023-05-20T21:30:10.809Z,27.45
2023-05-20T21:32:38.118Z,19.77
2023-05-20T21:35:05.115Z,13.20
2023-05-20T21:37:31.630Z,16.00
2023-05-20T21:39:58.343Z,13.27
2023-05-20T21:42:24.874Z,11.93
2023-05-20T21:44:51.485Z,14.10
2023-05-20T21:47:19.582Z,11.15
2023-05-20T21:49:47.936Z,12.25
2023-05-20T21:52:14.747Z,11.40
2023-05-20T21:54:41.668Z,13.40
2023-05-20T21:57:08.188Z,11.25
2023-05-20T21:59:34.764Z,16.77
2023-05-20T22:02:01.423Z,13.25
2023-05-20T22:04:28.648Z,12.57
2023-05-20T22:06:56.622Z,17.05
2023-05-20T22:09:23.170Z,12.00
2023-05-20T22:11:49.710Z,13.35
2023-05-20T22:14:16.883Z,12.65
2023-05-20T22:16:48.345Z,13.57
2023-05-20T22:19:16.013Z,19.63
2023-05-20T22:21:50.027Z,13.15
2023-05-20T22:24:17.948Z,15.02
2023-05-20T22:26:44.692Z,15.05
2023-05-20T22:29:11.286Z,12.48
2023-05-20T22:31:38.088Z,12.65
2023-05-20T22:34:05.515Z,12.30
2023-05-20T22:36:34.137Z,11.75
2023-05-20T22:39:02.236Z,13.55
2023-05-20T22:41:29.075Z,14.68
2023-05-20T22:43:56.786Z,13.30
2023-05-20T22:46:23.928Z,14.05
2023-05-20T22:48:52.909Z,12.85
2023-05-20T22:51:21.316Z,14.52
2023-05-20T22:53:48.569Z,13.15
2023-05-20T22:56:15.424Z,14.18
2023-05-20T22:58:42.591Z,12.25
2023-05-20T23:01:10.409Z,11.63
2023-05-20T23:03:37.752Z,12.50
2023-05-20T23:06:04.407Z,13.02
2023-05-20T23:08:30.986Z,14.23
2023-05-20T23:10:57.480Z,14.55
2023-05-20T23:13:24.014Z,14.00
2023-05-20T23:15:50.544Z,11.55
2023-05-20T23:18:18.065Z,14.05
2023-05-20T23:20:44.575Z,12.55
2023-05-20T23:23:11.648Z,16.75
2023-05-20T23:25:38.987Z,12.60
2023-05-20T23:28:06.225Z,14.38
2023-05-20T23:30:32.817Z,12.35
2023-05-20T23:32:59.804Z,15.55
2023-05-20T23:35:26.388Z,13.27
2023-05-20T23:37:53.020Z,13.55
2023-05-20T23:40:19.541Z,13.07
2023-05-20T23:42:46.214Z,14.65
2023-05-20T23:45:13.126Z,15.98
2023-05-20T23:47:39.737Z,13.45
2023-05-20T23:50:06.759Z,14.48
2023-05-20T23:52:33.296Z,15.18
2023-05-20T23:55:00.393Z,19.45
2023-05-20T23:57:27.202Z,14.68
2023-05-20T23:59:53.761Z,17.08
